sensor_id;sensor_type;location;lat;lon;timestamp;pressure;altitude;pressure_sealevel;temperature;humidity
12624;BME280;6377;42.836;23.998;2024-03-17T09:43:44;95979.31;;;14.94;45.73
12624;BME280;6377;42.836;23.998;2024-03-17T09:46:18;95873.53;;;14.69;46.02
12624;BME280;6377;42.836;23.998;2024-03-17T10:26:16;95861.00;;;15.43;44.73
12624;BME280;6377;42.836;23.998;2024-03-17T10:28:44;95952.53;;;16.48;43.59
12624;BME280;6377;42.836;23.998;2024-03-17T10:31:11;95986.84;;;16.64;42.38
12624;BME280;6377;42.836;23.998;2024-03-17T10:33:39;95884.41;;;16.00;42.05
12624;BME280;6377;42.836;23.998;2024-03-17T10:36:17;95965.06;;;16.67;42.83
12624;BME280;6377;42.836;23.998;2024-03-17T10:38:51;95969.41;;;16.55;42.39
12624;BME280;6377;42.836;23.998;2024-03-17T10:41:23;95975.53;;;16.69;42.82
12624;BME280;6377;42.836;23.998;2024-03-17T10:43:53;95911.47;;;16.36;42.00
12624;BME280;6377;42.836;23.998;2024-03-17T10:46:23;95937.75;;;16.39;42.09
12624;BME280;6377;42.836;23.998;2024-03-17T10:48:55;95920.56;;;15.76;41.88
12624;BME280;6377;42.836;23.998;2024-03-17T10:51:23;95968.59;;;16.22;43.07
12624;BME280;6377;42.836;23.998;2024-03-17T10:53:52;95882.38;;;15.49;43.31
12624;BME280;6377;42.836;23.998;2024-03-17T10:56:25;95850.00;;;15.52;43.31
12624;BME280;6377;42.836;23.998;2024-03-17T10:58:53;95958.28;;;16.52;42.78
12624;BME280;6377;42.836;23.998;2024-03-17T11:01:23;95964.38;;;16.92;41.12
12624;BME280;6377;42.836;23.998;2024-03-17T11:03:54;95954.31;;;17.38;41.72
12624;BME280;6377;42.836;23.998;2024-03-17T11:06:23;95921.53;;;17.56;40.17
12624;BME280;6377;42.836;23.998;2024-03-17T11:08:51;95928.84;;;17.73;40.40
12624;BME280;6377;42.836;23.998;2024-03-17T11:11:37;95944.88;;;17.73;40.56
12624;BME280;6377;42.836;23.998;2024-03-17T11:14:16;95951.06;;;17.74;40.10
12624;BME280;6377;42.836;23.998;2024-03-17T11:16:46;95880.06;;;16.58;40.10
12624;BME280;6377;42.836;23.998;2024-03-17T11:32:34;95886.44;;;15.32;43.32
12624;BME280;6377;42.836;23.998;2024-03-17T12:36:15;95918.88;;;14.47;47.53
12624;BME280;6377;42.836;23.998;2024-03-17T12:38:53;95869.63;;;14.30;46.49
12624;BME280;6377;42.836;23.998;2024-03-17T12:41:22;95849.00;;;14.32;46.18
12624;BME280;6377;42.836;23.998;2024-03-17T12:43:54;95738.56;;;13.68;45.53
12624;BME280;6377;42.836;23.998;2024-03-17T12:46:23;95806.00;;;14.01;45.76
12624;BME280;6377;42.836;23.998;2024-03-17T12:55:34;95904.25;;;14.71;46.30
12624;BME280;6377;42.836;23.998;2024-03-17T12:58:19;95908.94;;;14.69;46.50
12624;BME280;6377;42.836;23.998;2024-03-17T13:01:06;95851.50;;;14.40;45.10
12624;BME280;6377;42.836;23.998;2024-03-17T13:03:36;95901.00;;;14.76;45.61
12624;BME280;6377;42.836;23.998;2024-03-17T13:09:28;95875.75;;;14.58;45.33
12624;BME280;6377;42.836;23.998;2024-03-17T13:11:59;95780.72;;;14.12;44.76
12624;BME280;6377;42.836;23.998;2024-03-17T13:14:52;95899.19;;;14.89;43.31
12624;BME280;6377;42.836;23.998;2024-03-17T13:17:33;95831.81;;;14.35;42.36
12624;BME280;6377;42.836;23.998;2024-03-17T13:20:02;95873.69;;;14.61;43.94
12624;BME280;6377;42.836;23.998;2024-03-17T13:22:35;95855.81;;;14.48;43.96
12624;BME280;6377;42.836;23.998;2024-03-17T13:31:40;95837.25;;;14.27;43.65
12624;BME280;6377;42.836;23.998;2024-03-17T13:34:09;95835.19;;;14.22;42.98
12624;BME280;6377;42.836;23.998;2024-03-17T14:10:34;95829.75;;;13.19;45.08
12624;BME280;6377;42.836;23.998;2024-03-17T14:41:37;95803.69;;;13.57;45.28
12624;BME280;6377;42.836;23.998;2024-03-17T14:44:10;95870.66;;;14.01;45.28
12624;BME280;6377;42.836;23.998;2024-03-17T14:49:35;95820.69;;;13.63;45.19
12624;BME280;6377;42.836;23.998;2024-03-17T14:56:06;95833.53;;;13.59;45.58
12624;BME280;6377;42.836;23.998;2024-03-17T14:58:54;95843.22;;;13.67;46.23
12624;BME280;6377;42.836;23.998;2024-03-17T23:13:44;95878.44;;;6.81;100.00
12624;BME280;6377;42.836;23.998;2024-03-17T23:16:13;95890.31;;;6.85;100.00
12624;BME280;6377;42.836;23.998;2024-03-17T23:18:41;95884.63;;;6.90;100.00
12624;BME280;6377;42.836;23.998;2024-03-17T23:21:08;95881.22;;;6.97;100.00
12624;BME280;6377;42.836;23.998;2024-03-17T23:23:35;95882.28;;;7.04;100.00
12624;BME280;6377;42.836;23.998;2024-03-17T23:26:03;95876.31;;;7.02;100.00
12624;BME280;6377;42.836;23.998;2024-03-17T23:28:30;95877.75;;;6.97;100.00
12624;BME280;6377;42.836;23.998;2024-03-17T23:30:58;95870.75;;;7.05;100.00
12624;BME280;6377;42.836;23.998;2024-03-17T23:33:26;95870.75;;;7.05;100.00
12624;BME280;6377;42.836;23.998;2024-03-17T23:35:53;95870.09;;;7.03;100.00
12624;BME280;6377;42.836;23.998;2024-03-17T23:38:20;95856.47;;;7.08;100.00
12624;BME280;6377;42.836;23.998;2024-03-17T23:40:47;95858.44;;;7.06;100.00
12624;BME280;6377;42.836;23.998;2024-03-17T23:43:14;95824.34;;;6.43;100.00
12624;BME280;6377;42.836;23.998;2024-03-17T23:45:41;95840.00;;;6.45;100.00
12624;BME280;6377;42.836;23.998;2024-03-17T23:48:10;95856.91;;;6.60;100.00
12624;BME280;6377;42.836;23.998;2024-03-17T23:50:37;95843.16;;;6.48;100.00
12624;BME280;6377;42.836;23.998;2024-03-17T23:53:05;95854.31;;;6.50;100.00
12624;BME280;6377;42.836;23.998;2024-03-17T23:55:32;95855.34;;;6.22;100.00
12624;BME280;6377;42.836;23.998;2024-03-17T23:57:59;95852.72;;;6.22;100.00
